Time;durP1;ratioP1;P1;durP2;ratioP2;P2;SDS_P1;SDS_P2;PMS_P1;PMS_P2;Temp;Humidity;BMP_temperature;BMP_pressure;BME280_temperature;BME280_humidity;BME280_pressure;Samples;Min_cycle;Max_cycle;Signal;HPM_P1;HPM_P2
2023/12/07 00:00:59;;;;;;;24.37;11.17;;;;;;;;;;4998542;28;20205;-89
2023/12/07 00:03:32;;;;;;;17.60;9.73;;;;;;;;;;4996828;28;20205;-89
2023/12/07 00:06:08;;;;;;;15.90;8.53;;;;;;;;;;4996865;28;20288;-90
2023/12/07 00:08:37;;;;;;;17.30;9.53;;;;;;;;;;4996999;28;20325;-89
2023/12/07 00:11:12;;;;;;;15.80;8.27;;;;;;;;;;4998029;28;20305;-89
2023/12/07 00:13:52;;;;;;;19.17;9.77;;;;;;;;;;5000384;28;20653;-89
2023/12/07 00:16:30;;;;;;;18.67;9.23;;;;;;;;;;4999060;28;20280;-88
2023/12/07 00:19:34;;;;;;;15.90;8.13;;;;;;;;;;4996491;28;20205;-90
2023/12/07 00:22:14;;;;;;;12.73;7.70;;;;;;;;;;4991399;28;20711;-87
2023/12/07 00:25:09;;;;;;;19.40;9.23;;;;;;;;;;4997110;28;20883;-88
2023/12/07 00:27:41;;;;;;;14.67;8.17;;;;;;;;;;4982451;28;20630;-88
2023/12/07 00:30:14;;;;;;;13.60;8.97;;;;;;;;;;4995399;28;20203;-89
2023/12/07 00:33:00;;;;;;;17.77;8.93;;;;;;;;;;4993837;28;20210;-88
2023/12/07 00:35:37;;;;;;;16.87;8.53;;;;;;;;;;4995388;28;20210;-89
2023/12/07 00:38:22;;;;;;;15.37;9.47;;;;;;;;;;4996370;28;20209;-89
2023/12/07 00:40:53;;;;;;;11.40;7.77;;;;;;;;;;4979286;28;20560;-89
2023/12/07 00:46:33;;;;;;;13.57;6.90;;;;;;;;;;4994794;28;20263;-88
2023/12/07 00:49:27;;;;;;;14.93;9.00;;;;;;;;;;4995828;28;20201;-88
2023/12/07 00:52:33;;;;;;;;;;;;;;;;;;;;;
2023/12/07 00:55:24;;;;;;;13.10;7.97;;;;;;;;;;4995854;28;20587;-87
2023/12/07 00:58:01;;;;;;;18.53;8.77;;;;;;;;;;4995664;28;20714;-88
2023/12/07 01:00:32;;;;;;;14.10;9.60;;;;;;;;;;4995264;28;20396;-88
2023/12/07 01:03:11;;;;;;;11.23;8.10;;;;;;;;;;4977335;28;20232;-88
2023/12/07 01:06:11;;;;;;;17.27;9.13;;;;;;;;;;4995129;28;20671;-87
2023/12/07 01:08:59;;;;;;;11.87;8.73;;;;;;;;;;4994236;28;20209;-89
2023/12/07 01:11:33;;;;;;;21.30;10.27;;;;;;;;;;4976198;28;20197;-88
2023/12/07 01:14:12;;;;;;;12.43;8.70;;;;;;;;;;4976419;28;20213;-89
2023/12/07 01:16:46;;;;;;;13.77;8.67;;;;;;;;;;4967813;28;20662;-88
2023/12/07 01:19:21;;;;;;;13.60;8.10;;;;;;;;;;4975659;28;20198;-88
2023/12/07 01:22:01;;;;;;;15.17;8.93;;;;;;;;;;4975127;28;20228;-89
2023/12/07 01:24:59;;;;;;;14.67;8.57;;;;;;;;;;4975273;28;20213;-89
2023/12/07 01:27:44;;;;;;;21.37;8.67;;;;;;;;;;4975373;28;20198;-87
2023/12/07 01:33:36;;;;;;;17.53;8.90;;;;;;;;;;4974066;28;20221;-87
2023/12/07 01:36:27;;;;;;;;;;;;;;;;;;;;;
2023/12/07 01:44:48;;;;;;;15.93;8.80;;;;;;;;;;4996405;28;20208;-88
2023/12/07 01:50:14;;;;;;;20.17;8.07;;;;;;;;;;5011828;28;20283;-87
2023/12/07 01:56:12;;;;;;;;;;;;;;;;;;;;;
2023/12/07 01:58:56;;;;;;;21.47;9.30;;;;;;;;;;5015633;28;20201;-88
2023/12/07 02:01:41;;;;;;;17.77;9.33;;;;;;;;;;5013981;28;20196;-87
2023/12/07 02:04:22;;;;;;;18.07;10.60;;;;;;;;;;5012276;28;20258;-90
2023/12/07 02:12:44;;;;;;;18.20;10.67;;;;;;;;;;4990799;28;20221;-88
2023/12/07 02:15:34;;;;;;;13.77;8.43;;;;;;;;;;4992265;28;20200;-90
2023/12/07 02:18:29;;;;;;;;;;;;;;;;;;;;;
2023/12/07 02:21:01;;;;;;;20.43;9.20;;;;;;;;;;4993727;28;20247;-89
2023/12/07 02:23:36;;;;;;;16.57;10.10;;;;;;;;;;4995015;28;20778;-88
2023/12/07 02:29:48;;;;;;;20.73;9.53;;;;;;;;;;4994562;28;20328;-90
2023/12/07 02:32:19;;;;;;;20.57;9.93;;;;;;;;;;4999638;28;20300;-89
2023/12/07 02:35:19;;;;;;;;;;;;;;;;;;;;;
2023/12/07 02:38:07;;;;;;;21.83;9.37;;;;;;;;;;5002160;28;20219;-88
2023/12/07 02:43:31;;;;;;;17.53;9.17;;;;;;;;;;5013905;28;20740;-88
2023/12/07 02:46:16;;;;;;;16.93;9.13;;;;;;;;;;5013004;28;20223;-89
2023/12/07 02:49:08;;;;;;;15.73;8.90;;;;;;;;;;5003934;28;20207;-89
2023/12/07 02:57:38;;;;;;;22.87;10.80;;;;;;;;;;5031375;28;20192;-88
2023/12/07 03:00:15;;;;;;;17.37;9.23;;;;;;;;;;5027499;28;20227;-90
2023/12/07 03:03:02;;;;;;;15.67;9.63;;;;;;;;;;5011128;28;20238;-89
2023/12/07 03:05:38;;;;;;;16.73;9.60;;;;;;;;;;5011016;28;20227;-88
2023/12/07 03:08:29;;;;;;;17.83;9.67;;;;;;;;;;5012966;28;20196;-88
2023/12/07 03:14:02;;;;;;;12.23;8.43;;;;;;;;;;4982682;28;20280;-87
2023/12/07 03:16:36;;;;;;;21.73;8.70;;;;;;;;;;4993506;28;20209;-88
2023/12/07 03:19:09;;;;;;;18.17;9.07;;;;;;;;;;5003863;28;20217;-88
2023/12/07 03:21:46;;;;;;;13.57;8.03;;;;;;;;;;4998224;28;20220;-88
2023/12/07 03:24:22;;;;;;;15.77;8.10;;;;;;;;;;4994763;28;20288;-88
2023/12/07 03:29:45;;;;;;;12.13;8.20;;;;;;;;;;4992576;28;20205;-88
2023/12/07 03:32:30;;;;;;;16.80;7.57;;;;;;;;;;5001076;28;20255;-88
2023/12/07 03:41:27;;;;;;;7.63;6.20;;;;;;;;;;4991785;28;20209;-88
2023/12/07 03:43:59;;;;;;;9.00;6.43;;;;;;;;;;4994976;28;20213;-88
2023/12/07 03:46:33;;;;;;;8.20;5.80;;;;;;;;;;4996394;28;20193;-88
2023/12/07 03:49:24;;;;;;;11.70;7.03;;;;;;;;;;4993598;28;20667;-88
2023/12/07 04:00:30;;;;;;;11.70;7.23;;;;;;;;;;4994809;28;20202;-89
2023/12/07 04:03:24;;;;;;;9.60;6.57;;;;;;;;;;4995663;28;20763;-88
2023/12/07 04:06:05;;;;;;;8.30;6.70;;;;;;;;;;4997604;28;20264;-89
2023/12/07 04:11:45;;;;;;;13.87;7.80;;;;;;;;;;4993983;28;20208;-88
2023/12/07 04:17:37;;;;;;;11.00;6.50;;;;;;;;;;4994934;28;20307;-89
2023/12/07 04:20:22;;;;;;;8.20;6.43;;;;;;;;;;4994847;28;20659;-89
2023/12/07 04:22:56;;;;;;;11.00;5.87;;;;;;;;;;4994654;28;20718;-88
2023/12/07 04:25:24;;;;;;;14.90;7.50;;;;;;;;;;4997004;28;20259;-88
2023/12/07 04:28:01;;;;;;;10.37;6.97;;;;;;;;;;4999061;28;20256;-89
2023/12/07 04:30:46;;;;;;;11.53;7.67;;;;;;;;;;5004959;28;20197;-88
2023/12/07 04:33:45;;;;;;;14.60;7.83;;;;;;;;;;5005675;28;20209;-87
2023/12/07 04:36:21;;;;;;;12.10;6.17;;;;;;;;;;5006242;28;20205;-88
2023/12/07 04:39:10;;;;;;;20.50;6.93;;;;;;;;;;5011073;28;20204;-88
2023/12/07 04:42:12;;;;;;;12.53;7.30;;;;;;;;;;5011437;28;20201;-88
2023/12/07 04:44:53;;;;;;;9.80;5.87;;;;;;;;;;5003528;28;20224;-91
2023/12/07 04:47:26;;;;;;;6.13;5.53;;;;;;;;;;5006241;28;20264;-88
2023/12/07 04:50:00;;;;;;;10.50;6.27;;;;;;;;;;5004880;28;20212;-89
2023/12/07 04:52:37;;;;;;;20.63;7.43;;;;;;;;;;5007194;28;20212;-90
2023/12/07 04:55:09;;;;;;;12.57;7.97;;;;;;;;;;5006956;28;20370;-88
2023/12/07 04:57:43;;;;;;;15.03;7.70;;;;;;;;;;5004174;28;20213;-89
2023/12/07 05:00:18;;;;;;;12.30;7.40;;;;;;;;;;5001497;28;20547;-87
2023/12/07 05:02:46;;;;;;;13.50;7.17;;;;;;;;;;5000190;28;20233;-89
2023/12/07 05:05:17;;;;;;;8.87;6.73;;;;;;;;;;5001799;28;20193;-88
2023/12/07 05:07:45;;;;;;;9.77;6.23;;;;;;;;;;5005058;28;20190;-89
2023/12/07 05:10:14;;;;;;;8.20;6.33;;;;;;;;;;5008382;28;20285;-89
2023/12/07 05:12:43;;;;;;;10.63;7.13;;;;;;;;;;5006599;28;20451;-89
2023/12/07 05:15:29;;;;;;;;;;;;;;;;;;;;;
2023/12/07 05:18:02;;;;;;;13.07;7.13;;;;;;;;;;5004997;28;20189;-88
2023/12/07 05:20:32;;;;;;;10.20;7.00;;;;;;;;;;5004257;28;20260;-89
2023/12/07 05:23:01;;;;;;;9.93;6.80;;;;;;;;;;5005436;28;20239;-87
2023/12/07 05:25:32;;;;;;;11.67;6.57;;;;;;;;;;5007853;28;20232;-88
2023/12/07 05:28:01;;;;;;;9.73;6.37;;;;;;;;;;5007053;28;20209;-88
2023/12/07 05:30:32;;;;;;;10.03;7.03;;;;;;;;;;5008900;28;20194;-88
2023/12/07 05:33:01;;;;;;;12.07;7.30;;;;;;;;;;5009117;28;20197;-90
2023/12/07 05:35:32;;;;;;;12.77;7.97;;;;;;;;;;5008056;28;20444;-89
2023/12/07 05:38:06;;;;;;;11.17;7.70;;;;;;;;;;5032145;28;20213;-88
2023/12/07 05:40:34;;;;;;;20.60;6.80;;;;;;;;;;5033498;28;20249;-89
2023/12/07 05:43:07;;;;;;;12.13;7.33;;;;;;;;;;5017248;28;20228;-89
2023/12/07 05:45:39;;;;;;;11.03;7.43;;;;;;;;;;5000836;28;20236;-87
2023/12/07 05:48:20;;;;;;;13.43;7.57;;;;;;;;;;5010862;28;20216;-87
2023/12/07 05:51:04;;;;;;;14.80;8.10;;;;;;;;;;4992531;28;20671;-87
2023/12/07 05:53:33;;;;;;;22.63;11.63;;;;;;;;;;4984316;28;20209;-88
2023/12/07 05:56:18;;;;;;;24.73;11.37;;;;;;;;;;5004655;28;20586;-87
2023/12/07 05:58:57;;;;;;;13.03;8.10;;;;;;;;;;5005255;28;20246;-87
2023/12/07 06:01:36;;;;;;;14.97;9.23;;;;;;;;;;5004342;28;20669;-91
2023/12/07 06:04:09;;;;;;;13.03;7.27;;;;;;;;;;5016935;28;20280;-89
2023/12/07 06:06:47;;;;;;;14.73;8.10;;;;;;;;;;5005438;28;20178;-89
2023/12/07 06:09:19;;;;;;;11.73;7.47;;;;;;;;;;4995592;28;20269;-86
2023/12/07 06:11:48;;;;;;;11.37;7.07;;;;;;;;;;4977782;28;20265;-88
2023/12/07 06:14:17;;;;;;;15.90;6.93;;;;;;;;;;4985999;28;20209;-88
2023/12/07 06:19:39;;;;;;;7.00;5.97;;;;;;;;;;4983356;28;20288;-88
2023/12/07 06:22:08;;;;;;;10.63;7.47;;;;;;;;;;4987232;28;20209;-89
2023/12/07 06:25:02;;;;;;;7.43;6.23;;;;;;;;;;4991576;28;20205;-89
2023/12/07 06:30:34;;;;;;;9.60;7.30;;;;;;;;;;4999486;28;20239;-89
2023/12/07 06:33:02;;;;;;;13.37;7.47;;;;;;;;;;4973251;28;20269;-88
2023/12/07 06:35:33;;;;;;;16.60;7.23;;;;;;;;;;4978377;28;20208;-89
2023/12/07 06:38:01;;;;;;;14.27;7.70;;;;;;;;;;5001677;28;20221;-88
2023/12/07 06:40:31;;;;;;;11.80;7.17;;;;;;;;;;5005238;28;20604;-89
2023/12/07 06:43:05;;;;;;;9.17;7.30;;;;;;;;;;4992771;28;20229;-89
2023/12/07 06:45:34;;;;;;;9.23;6.83;;;;;;;;;;4993235;28;20227;-90
2023/12/07 06:51:20;;;;;;;7.27;6.43;;;;;;;;;;4515077;27;17403121;-89
2023/12/07 06:56:56;;;;;;;7.70;5.70;;;;;;;;;;5109051;28;20248;-87
2023/12/07 06:59:41;;;;;;;12.97;7.43;;;;;;;;;;5108931;28;20200;-89
2023/12/07 07:02:13;;;;;;;9.67;6.23;;;;;;;;;;5110142;28;20197;-89
2023/12/07 07:04:44;;;;;;;9.50;5.93;;;;;;;;;;5113724;28;20201;-89
2023/12/07 07:07:17;;;;;;;8.10;5.43;;;;;;;;;;5118106;28;20201;-87
2023/12/07 07:09:49;;;;;;;7.17;5.93;;;;;;;;;;5120644;28;20813;-88
2023/12/07 07:12:39;;;;;;;8.90;6.37;;;;;;;;;;5138787;28;20288;-90
2023/12/07 07:15:16;;;;;;;10.73;6.87;;;;;;;;;;5132932;28;20209;-89
2023/12/07 07:17:47;;;;;;;13.67;7.43;;;;;;;;;;5131727;28;20681;-89
2023/12/07 07:20:16;;;;;;;10.43;6.80;;;;;;;;;;5132725;28;20613;-88
2023/12/07 07:23:04;;;;;;;6.57;5.93;;;;;;;;;;5120302;28;20191;-88
2023/12/07 07:25:35;;;;;;;10.10;6.80;;;;;;;;;;5111169;28;20216;-88
2023/12/07 07:28:04;;;;;;;6.90;5.50;;;;;;;;;;5111177;28;20200;-87
2023/12/07 07:33:22;;;;;;;5.73;4.63;;;;;;;;;;5120853;28;20634;-88
2023/12/07 07:35:50;;;;;;;10.90;4.30;;;;;;;;;;5109622;28;20189;-88
2023/12/07 07:38:28;;;;;;;7.97;3.97;;;;;;;;;;5116861;28;20345;-89
2023/12/07 07:41:03;;;;;;;10.57;4.80;;;;;;;;;;5093810;28;20732;-89
2023/12/07 07:43:31;;;;;;;7.77;4.80;;;;;;;;;;5097166;28;20639;-89
2023/12/07 07:46:00;;;;;;;5.33;4.30;;;;;;;;;;5090530;28;20210;-89
2023/12/07 07:48:31;;;;;;;6.23;4.23;;;;;;;;;;5088319;28;20205;-89
2023/12/07 07:51:06;;;;;;;9.03;4.33;;;;;;;;;;5085059;28;20328;-88
2023/12/07 07:53:40;;;;;;;8.13;5.43;;;;;;;;;;5088231;28;20201;-89
2023/12/07 07:56:25;;;;;;;11.33;4.60;;;;;;;;;;5093511;28;20193;-89
2023/12/07 07:58:53;;;;;;;5.53;3.83;;;;;;;;;;5070986;28;20206;-89
2023/12/07 08:01:24;;;;;;;6.37;4.33;;;;;;;;;;5062421;28;20211;-87
2023/12/07 08:03:56;;;;;;;6.77;5.23;;;;;;;;;;5055310;28;20195;-89
2023/12/07 08:06:23;;;;;;;5.33;4.10;;;;;;;;;;5054876;28;20644;-89
2023/12/07 08:08:58;;;;;;;8.03;4.43;;;;;;;;;;5054875;28;20226;-88
2023/12/07 08:11:29;;;;;;;9.17;4.40;;;;;;;;;;5054994;28;20218;-88
2023/12/07 08:14:00;;;;;;;9.50;6.67;;;;;;;;;;5036811;28;20253;-89
2023/12/07 08:16:37;;;;;;;14.60;7.90;;;;;;;;;;5055925;28;20563;-88
2023/12/07 08:19:11;;;;;;;18.73;9.10;;;;;;;;;;5054812;28;20195;-89
2023/12/07 08:21:43;;;;;;;4.17;3.70;;;;;;;;;;5054775;28;20690;-88
2023/12/07 08:24:16;;;;;;;5.10;4.30;;;;;;;;;;5058389;28;20203;-88
2023/12/07 08:26:57;;;;;;;5.63;4.50;;;;;;;;;;5059995;28;20264;-90
2023/12/07 08:32:18;;;;;;;5.60;2.97;;;;;;;;;;5054904;28;20332;-89
2023/12/07 08:34:50;;;;;;;4.77;3.00;;;;;;;;;;5054444;28;20260;-89
2023/12/07 08:37:20;;;;;;;4.90;2.73;;;;;;;;;;5060527;28;20214;-89
2023/12/07 08:39:54;;;;;;;2.90;2.70;;;;;;;;;;5060604;28;20227;-87
2023/12/07 08:42:27;;;;;;;20.30;11.40;;;;;;;;;;5058180;28;20245;-89
2023/12/07 08:45:14;;;;;;;8.80;4.83;;;;;;;;;;5060754;28;20222;-89
2023/12/07 08:47:45;;;;;;;3.17;2.87;;;;;;;;;;5063817;28;20280;-89
2023/12/07 08:50:15;;;;;;;11.60;7.23;;;;;;;;;;5063126;28;20611;-88
2023/12/07 08:52:45;;;;;;;8.37;5.57;;;;;;;;;;5073408;28;20714;-88
2023/12/07 08:55:32;;;;;;;1.43;1.33;;;;;;;;;;5071592;28;20216;-89
2023/12/07 08:58:16;;;;;;;2.57;2.37;;;;;;;;;;5063042;28;20255;-88
2023/12/07 09:00:53;;;;;;;2.73;2.53;;;;;;;;;;5064132;28;20234;-87
2023/12/07 09:03:27;;;;;;;2.63;2.53;;;;;;;;;;5060010;28;20236;-88
2023/12/07 09:06:02;;;;;;;3.87;3.57;;;;;;;;;;5060163;28;20277;-89
2023/12/07 09:08:39;;;;;;;3.77;3.47;;;;;;;;;;5061102;28;20227;-88
2023/12/07 09:14:09;;;;;;;1.80;1.70;;;;;;;;;;5054376;28;20233;-90
2023/12/07 09:16:36;;;;;;;6.20;3.57;;;;;;;;;;5057174;28;20250;-88
2023/12/07 09:19:05;;;;;;;6.53;4.80;;;;;;;;;;5064417;28;20227;-89
2023/12/07 09:21:44;;;;;;;3.40;1.70;;;;;;;;;;5061297;28;20698;-88
2023/12/07 09:24:15;;;;;;;5.40;3.13;;;;;;;;;;5057477;28;20302;-89
2023/12/07 09:26:58;;;;;;;3.87;3.47;;;;;;;;;;5058839;28;20253;-89
2023/12/07 09:29:29;;;;;;;1.60;1.50;;;;;;;;;;5060449;28;20250;-88
2023/12/07 09:31:59;;;;;;;3.23;2.90;;;;;;;;;;5061838;28;20298;-87
2023/12/07 09:34:33;;;;;;;1.93;1.83;;;;;;;;;;5064593;28;20253;-89
2023/12/07 09:37:11;;;;;;;1.40;1.40;;;;;;;;;;5061930;28;20309;-86
2023/12/07 09:39:53;;;;;;;1.53;1.40;;;;;;;;;;5072483;28;20283;-87
2023/12/07 09:42:32;;;;;;;2.80;2.10;;;;;;;;;;5069226;28;20307;-87
2023/12/07 09:45:00;;;;;;;1.30;1.30;;;;;;;;;;5078967;28;20298;-89
2023/12/07 09:47:40;;;;;;;0.83;0.83;;;;;;;;;;5080820;28;20264;-86
2023/12/07 09:50:10;;;;;;;0.80;0.80;;;;;;;;;;5079208;28;20721;-88
2023/12/07 09:52:41;;;;;;;1.50;1.40;;;;;;;;;;5072405;28;20234;-88
2023/12/07 09:55:09;;;;;;;1.63;0.73;;;;;;;;;;5071829;28;20249;-89
2023/12/07 09:57:49;;;;;;;2.60;2.00;;;;;;;;;;5072344;28;20813;-87
2023/12/07 10:00:18;;;;;;;2.00;1.90;;;;;;;;;;5072818;28;20226;-89
2023/12/07 10:02:50;;;;;;;1.33;1.23;;;;;;;;;;5072637;28;20222;-88
2023/12/07 10:05:23;;;;;;;1.93;1.83;;;;;;;;;;5071673;28;20729;-88
2023/12/07 10:07:52;;;;;;;1.57;1.47;;;;;;;;;;5065693;28;20231;-88
2023/12/07 10:10:20;;;;;;;2.40;2.17;;;;;;;;;;5050268;28;20239;-89
2023/12/07 10:13:07;;;;;;;11.33;2.63;;;;;;;;;;5065966;28;20227;-88
2023/12/07 10:15:37;;;;;;;9.97;3.53;;;;;;;;;;5072594;28;20367;-88
2023/12/07 10:18:13;;;;;;;2.20;2.00;;;;;;;;;;5073266;28;20250;-89
2023/12/07 10:20:48;;;;;;;60.53;19.77;;;;;;;;;;5066481;28;20226;-86
2023/12/07 10:26:42;;;;;;;3.43;2.97;;;;;;;;;;5045659;28;20292;-87
2023/12/07 10:32:17;;;;;;;1.50;1.40;;;;;;;;;;5050448;28;20262;-88
2023/12/07 10:34:50;;;;;;;2.77;1.50;;;;;;;;;;5046854;28;20264;-89
2023/12/07 10:37:21;;;;;;;3.37;3.10;;;;;;;;;;5060941;28;20219;-86
2023/12/07 10:39:53;;;;;;;2.27;2.07;;;;;;;;;;5054812;28;20224;-87
2023/12/07 10:42:25;;;;;;;1.83;1.17;;;;;;;;;;5068262;28;20226;-87
2023/12/07 10:45:00;;;;;;;0.43;0.43;;;;;;;;;;5081327;28;20199;-86
2023/12/07 10:47:29;;;;;;;2.50;1.93;;;;;;;;;;5080454;28;20269;-87
2023/12/07 10:50:04;;;;;;;1.43;1.23;;;;;;;;;;5077917;28;20218;-86
2023/12/07 10:52:34;;;;;;;4.47;3.97;;;;;;;;;;5076519;28;20213;-86
2023/12/07 10:55:04;;;;;;;1.93;1.73;;;;;;;;;;5076673;28;20190;-87
2023/12/07 10:57:34;;;;;;;2.17;1.40;;;;;;;;;;5078211;28;20202;-86
2023/12/07 11:00:10;;;;;;;2.37;2.17;;;;;;;;;;5076366;28;20210;-86
2023/12/07 11:02:38;;;;;;;2.50;2.37;;;;;;;;;;5080640;28;20236;-86
2023/12/07 11:05:10;;;;;;;8.63;4.07;;;;;;;;;;5080170;28;20194;-86
2023/12/07 11:07:44;;;;;;;2.10;1.87;;;;;;;;;;5083038;28;20709;-86
2023/12/07 11:10:17;;;;;;;12.10;4.70;;;;;;;;;;5083443;28;20256;-87
2023/12/07 11:12:50;;;;;;;2.80;2.40;;;;;;;;;;5085477;28;20663;-86
2023/12/07 11:15:20;;;;;;;5.30;3.67;;;;;;;;;;5082846;28;20187;-85
2023/12/07 11:18:14;;;;;;;9.37;5.03;;;;;;;;;;5079338;28;20187;-89
2023/12/07 11:20:42;;;;;;;7.67;3.93;;;;;;;;;;5080992;28;20225;-87
2023/12/07 11:23:11;;;;;;;7.33;2.63;;;;;;;;;;5083694;28;20973;-87
2023/12/07 11:25:41;;;;;;;3.40;2.63;;;;;;;;;;5083009;28;20187;-87
2023/12/07 11:28:10;;;;;;;6.87;3.03;;;;;;;;;;5081994;28;20297;-87
2023/12/07 11:30:43;;;;;;;11.50;5.40;;;;;;;;;;5079810;28;20233;-87
2023/12/07 11:33:24;;;;;;;4.13;2.53;;;;;;;;;;5079308;28;20199;-87
2023/12/07 11:36:10;;;;;;;2.43;2.33;;;;;;;;;;5080247;28;20206;-87
2023/12/07 11:38:59;;;;;;;3.80;2.77;;;;;;;;;;5082410;28;20317;-87
2023/12/07 11:41:30;;;;;;;4.73;3.03;;;;;;;;;;5079572;28;20230;-88
2023/12/07 11:44:02;;;;;;;2.60;2.07;;;;;;;;;;5078391;28;20667;-87
2023/12/07 11:46:34;;;;;;;0.97;0.97;;;;;;;;;;5079878;28;20201;-88
2023/12/07 11:49:05;;;;;;;0.90;0.90;;;;;;;;;;5082203;28;20305;-87
2023/12/07 11:51:33;;;;;;;1.90;0.97;;;;;;;;;;5082205;28;20385;-89
2023/12/07 11:54:11;;;;;;;1.17;1.13;;;;;;;;;;5065735;28;20194;-88
2023/12/07 11:56:40;;;;;;;1.03;1.00;;;;;;;;;;5080341;28;20598;-85
2023/12/07 11:59:14;;;;;;;1.27;1.17;;;;;;;;;;5081426;28;20314;-87
2023/12/07 12:01:48;;;;;;;5.00;2.30;;;;;;;;;;5067604;28;20788;-88
2023/12/07 12:04:17;;;;;;;3.97;2.60;;;;;;;;;;5065932;28;20321;-86
2023/12/07 12:06:45;;;;;;;1.77;1.37;;;;;;;;;;5070264;28;20235;-89
2023/12/07 12:09:17;;;;;;;0.97;0.97;;;;;;;;;;5063047;28;20232;-88
2023/12/07 12:11:48;;;;;;;1.47;1.33;;;;;;;;;;5068634;28;20261;-89
2023/12/07 12:14:29;;;;;;;0.90;0.83;;;;;;;;;;5061696;28;20227;-85
2023/12/07 12:17:04;;;;;;;1.00;1.00;;;;;;;;;;5059199;28;20658;-89
2023/12/07 12:19:37;;;;;;;2.10;1.50;;;;;;;;;;5052733;28;20682;-87
2023/12/07 12:22:06;;;;;;;2.13;1.80;;;;;;;;;;5054540;28;20588;-87
2023/12/07 12:24:33;;;;;;;5.90;4.17;;;;;;;;;;5052358;28;20289;-88
2023/12/07 12:27:02;;;;;;;3.10;2.37;;;;;;;;;;5054406;28;20231;-87
2023/12/07 12:29:31;;;;;;;3.93;2.10;;;;;;;;;;5054667;28;20226;-86
2023/12/07 12:32:16;;;;;;;10.27;4.77;;;;;;;;;;5054866;28;20233;-87
2023/12/07 12:34:46;;;;;;;7.20;4.67;;;;;;;;;;5055294;28;20753;-88
2023/12/07 12:37:13;;;;;;;11.73;6.70;;;;;;;;;;5061723;28;20700;-87
2023/12/07 12:39:42;;;;;;;22.00;10.27;;;;;;;;;;5058954;28;20265;-86
2023/12/07 12:42:39;;;;;;;5.13;4.10;;;;;;;;;;5057624;28;20234;-85
2023/12/07 12:45:10;;;;;;;3.00;2.80;;;;;;;;;;5025711;28;20756;-87
2023/12/07 12:47:52;;;;;;;4.53;2.77;;;;;;;;;;5053926;28;20231;-89
2023/12/07 12:53:41;;;;;;;7.00;1.37;;;;;;;;;;5074041;28;20211;-87
2023/12/07 12:56:17;;;;;;;1.63;1.53;;;;;;;;;;5077339;28;20226;-89
2023/12/07 12:58:45;;;;;;;10.60;3.97;;;;;;;;;;5077747;28;20667;-88
2023/12/07 13:01:15;;;;;;;6.60;3.20;;;;;;;;;;5060357;28;20236;-90
2023/12/07 13:03:47;;;;;;;1.67;1.57;;;;;;;;;;5054285;28;20234;-86
2023/12/07 13:06:15;;;;;;;1.40;1.40;;;;;;;;;;5052535;28;20783;-87
2023/12/07 13:08:45;;;;;;;2.03;1.63;;;;;;;;;;5061241;28;20249;-87
2023/12/07 13:11:19;;;;;;;3.07;2.53;;;;;;;;;;5079669;28;20222;-86
2023/12/07 13:13:56;;;;;;;2.80;2.37;;;;;;;;;;5093886;28;20218;-87
2023/12/07 13:16:34;;;;;;;3.60;3.00;;;;;;;;;;5086343;28;20693;-90
2023/12/07 13:19:14;;;;;;;2.37;2.23;;;;;;;;;;5082214;28;20284;-90
2023/12/07 13:21:50;;;;;;;2.57;2.37;;;;;;;;;;5076374;28;20234;-89
2023/12/07 13:24:32;;;;;;;5.97;4.47;;;;;;;;;;5075866;28;20706;-88
2023/12/07 13:27:28;;;;;;;7.73;2.90;;;;;;;;;;5072600;28;20241;-88
2023/12/07 13:29:59;;;;;;;5.40;3.27;;;;;;;;;;5073348;28;20226;-88
2023/12/07 13:32:40;;;;;;;;;;;;;;;;;;;;;
2023/12/07 13:35:27;;;;;;;3.23;2.90;;;;;;;;;;5053658;28;20234;-87
2023/12/07 13:38:19;;;;;;;4.53;2.50;;;;;;;;;;5051765;28;20227;-89
2023/12/07 13:41:07;;;;;;;2.43;2.23;;;;;;;;;;5069896;28;20252;-86
2023/12/07 13:43:41;;;;;;;4.23;2.83;;;;;;;;;;5092921;28;20229;-89
2023/12/07 13:46:12;;;;;;;5.43;4.00;;;;;;;;;;5093265;28;20198;-87
2023/12/07 14:00:20;;;;;;;3.73;2.67;;;;;;;;;;5054252;22;20227;-87
2023/12/07 14:05:53;;;;;;;8.03;4.53;;;;;;;;;;5078948;22;20235;-88
2023/12/07 14:08:30;;;;;;;10.10;5.13;;;;;;;;;;5066239;28;20230;-87
2023/12/07 14:10:59;;;;;;;3.70;2.67;;;;;;;;;;5055208;28;20310;-85
2023/12/07 14:13:27;;;;;;;3.00;2.80;;;;;;;;;;5057784;28;20222;-86
2023/12/07 14:15:56;;;;;;;3.53;3.20;;;;;;;;;;5063396;28;20291;-87
2023/12/07 14:21:25;;;;;;;3.13;2.40;;;;;;;;;;5044298;28;20223;-88
2023/12/07 14:23:58;;;;;;;3.67;3.37;;;;;;;;;;5050987;28;20329;-85
2023/12/07 14:26:27;;;;;;;1.97;1.87;;;;;;;;;;5052206;28;20219;-88
2023/12/07 14:28:58;;;;;;;6.10;4.33;;;;;;;;;;5051082;28;20318;-88
2023/12/07 14:31:27;;;;;;;4.77;3.30;;;;;;;;;;5051419;28;20235;-87
2023/12/07 14:34:04;;;;;;;1.37;1.37;;;;;;;;;;5051021;28;20245;-87
2023/12/07 14:36:34;;;;;;;6.63;4.10;;;;;;;;;;5051397;28;20219;-87
2023/12/07 14:39:06;;;;;;;8.13;5.70;;;;;;;;;;5039642;28;20247;-86
2023/12/07 14:41:36;;;;;;;6.63;5.00;;;;;;;;;;5032319;28;20228;-87
2023/12/07 14:44:07;;;;;;;3.23;2.10;;;;;;;;;;5031717;28;20220;-87
2023/12/07 14:46:39;;;;;;;4.73;4.27;;;;;;;;;;5034398;28;20236;-87
2023/12/07 14:49:20;;;;;;;4.30;3.90;;;;;;;;;;5032480;28;20235;-87
2023/12/07 14:51:56;;;;;;;5.63;3.63;;;;;;;;;;5031974;28;20241;-87
2023/12/07 14:54:25;;;;;;;3.40;2.83;;;;;;;;;;5033861;28;20223;-86
2023/12/07 14:59:45;;;;;;;4.10;3.30;;;;;;;;;;5033574;28;20239;-87
2023/12/07 15:02:13;;;;;;;7.53;5.73;;;;;;;;;;5041674;28;20208;-86
2023/12/07 15:08:03;;;;;;;;;;;;;;;;;;;;;
2023/12/07 15:10:37;;;;;;;2.57;2.40;;;;;;;;;;5028520;28;20719;-86
2023/12/07 15:13:07;;;;;;;16.73;9.63;;;;;;;;;;5028755;28;20282;-87
2023/12/07 15:15:36;;;;;;;4.37;4.00;;;;;;;;;;5032852;28;20302;-87
2023/12/07 15:18:18;;;;;;;3.83;3.43;;;;;;;;;;5038051;28;20318;-87
2023/12/07 15:20:50;;;;;;;12.00;5.43;;;;;;;;;;5036535;28;20251;-87
2023/12/07 15:23:24;;;;;;;4.73;4.33;;;;;;;;;;5020303;28;20231;-88
2023/12/07 15:25:54;;;;;;;10.13;4.90;;;;;;;;;;5039341;28;20645;-86
2023/12/07 15:28:39;;;;;;;10.87;7.13;;;;;;;;;;5047744;28;20243;-86
2023/12/07 15:31:09;;;;;;;9.67;5.23;;;;;;;;;;5033931;28;20235;-88
2023/12/07 15:33:42;;;;;;;7.13;5.87;;;;;;;;;;5034426;28;20228;-88
2023/12/07 15:36:12;;;;;;;11.13;6.90;;;;;;;;;;5034158;28;20224;-87
2023/12/07 15:38:42;;;;;;;8.33;5.10;;;;;;;;;;5034932;28;20232;-88
2023/12/07 15:41:13;;;;;;;2.50;2.30;;;;;;;;;;5022852;28;20366;-87
2023/12/07 15:43:55;;;;;;;5.77;5.10;;;;;;;;;;5034795;28;20231;-87
2023/12/07 15:46:25;;;;;;;5.63;4.00;;;;;;;;;;5030288;28;20227;-87
2023/12/07 15:49:15;;;;;;;5.30;2.57;;;;;;;;;;5035708;28;20291;-88
2023/12/07 15:52:10;;;;;;;2.50;2.33;;;;;;;;;;5034648;28;20274;-87
2023/12/07 15:54:52;;;;;;;4.00;3.13;;;;;;;;;;5038744;28;20232;-86
2023/12/07 16:03:42;;;;;;;2.90;2.67;;;;;;;;;;5213978;22;20356;-86
2023/12/07 16:21:33;;;;;;;4.30;2.57;;;;;;;;;;5029064;28;20251;-84
2023/12/07 16:24:11;;;;;;;14.03;5.33;;;;;;;;;;5028388;28;20252;-87
2023/12/07 16:26:51;;;;;;;7.03;4.50;;;;;;;;;;5029338;28;20227;-86
2023/12/07 16:29:22;;;;;;;10.20;5.50;;;;;;;;;;5026943;28;20224;-87
2023/12/07 16:31:57;;;;;;;4.37;3.20;;;;;;;;;;5028307;28;20228;-87
2023/12/07 16:34:26;;;;;;;9.93;4.30;;;;;;;;;;5030664;28;20255;-87
2023/12/07 16:37:20;;;;;;;6.83;5.10;;;;;;;;;;5029000;28;20268;-85
2023/12/07 16:40:05;;;;;;;6.93;6.10;;;;;;;;;;4994263;28;20221;-85
2023/12/07 16:42:45;;;;;;;9.37;5.77;;;;;;;;;;5007124;28;20277;-88
2023/12/07 16:45:21;;;;;;;7.10;5.20;;;;;;;;;;5010903;28;20245;-85
2023/12/07 16:47:57;;;;;;;4.37;2.87;;;;;;;;;;5007823;28;20232;-86
2023/12/07 16:50:36;;;;;;;6.23;4.20;;;;;;;;;;5010292;28;20221;-86
2023/12/07 16:53:27;;;;;;;8.23;4.97;;;;;;;;;;5009259;28;20229;-88
2023/12/07 16:56:27;;;;;;;4.47;3.30;;;;;;;;;;4999260;28;20221;-86
2023/12/07 17:01:43;;;;;;;5.83;4.30;;;;;;;;;;4981765;28;20761;-85
2023/12/07 17:04:23;;;;;;;14.83;7.70;;;;;;;;;;5004237;28;20264;-86
2023/12/07 17:16:27;;;;;;;7.60;5.40;;;;;;;;;;4935177;29;20262;-87
2023/12/07 17:19:29;;;;;;;6.53;4.37;;;;;;;;;;4975542;28;20260;-86
2023/12/07 17:30:16;;;;;;;19.87;8.47;;;;;;;;;;5295447;23;20755;-87
2023/12/07 17:33:00;;;;;;;13.60;6.53;;;;;;;;;;4981054;28;20312;-86
2023/12/07 17:35:51;;;;;;;12.53;7.37;;;;;;;;;;4989588;28;20636;-89
2023/12/07 17:38:47;;;;;;;;;;;;;;;;;;;;;
2023/12/07 17:41:18;;;;;;;13.87;6.90;;;;;;;;;;4994703;28;20217;-87
2023/12/07 17:44:04;;;;;;;6.53;4.73;;;;;;;;;;4994188;28;20291;-86
2023/12/07 17:46:34;;;;;;;10.53;5.97;;;;;;;;;;4991363;28;20230;-89
2023/12/07 17:49:22;;;;;;;15.07;7.60;;;;;;;;;;4979739;28;20253;-86
2023/12/07 17:52:02;;;;;;;10.53;6.87;;;;;;;;;;4985086;28;20238;-90
2023/12/07 17:54:37;;;;;;;12.07;6.20;;;;;;;;;;4986416;28;20245;-89
2023/12/07 17:57:11;;;;;;;7.00;5.17;;;;;;;;;;4981395;28;20232;-90
2023/12/07 18:00:02;;;;;;;12.57;6.27;;;;;;;;;;4979608;28;20285;-88
2023/12/07 18:02:42;;;;;;;14.80;7.17;;;;;;;;;;4979349;28;20222;-89
2023/12/07 18:05:24;;;;;;;7.03;5.00;;;;;;;;;;4978544;28;20229;-87
2023/12/07 18:08:11;;;;;;;;;;;;;;;;;;;;;
2023/12/07 18:19:09;;;;;;;9.37;3.80;;;;;;;;;;4987579;28;20230;-88
2023/12/07 18:24:26;;;;;;;5.17;4.67;;;;;;;;;;5275551;22;20239;-87
2023/12/07 18:27:00;;;;;;;10.40;6.13;;;;;;;;;;5025152;28;20296;-88
2023/12/07 18:29:47;;;;;;;6.23;4.70;;;;;;;;;;5024355;28;20301;-86